createdAt,value
2022-12-23T00:00:28.550Z,97264.41
2022-12-23T00:02:55.331Z,97265.56
2022-12-23T00:05:22.136Z,97252.44
2022-12-23T00:07:48.693Z,97251.25
2022-12-23T00:10:15.248Z,97266.19
2022-12-23T00:13:00.659Z,97265.31
2022-12-23T00:15:27.414Z,97259.56
2022-12-23T00:17:53.942Z,97263.75
2022-12-23T00:20:20.491Z,97261.53
2022-12-23T00:23:05.265Z,97273.94
2022-12-23T00:25:42.171Z,97273.84
2022-12-23T00:28:13.931Z,97264.50
2022-12-23T00:30:47.617Z,97262.69
2022-12-23T00:33:15.380Z,97275.84
2022-12-23T00:35:43.350Z,97264.31
2022-12-23T00:38:09.803Z,97255.84
2022-12-23T00:40:54.839Z,97258.44
2022-12-23T00:43:21.357Z,97260.09
2022-12-23T00:45:47.946Z,97260.09
2022-12-23T00:48:33.171Z,97260.25
2022-12-23T00:50:59.813Z,97263.00
2022-12-23T00:53:26.562Z,97265.81
2022-12-23T00:55:53.191Z,97261.09
2022-12-23T00:58:21.573Z,97274.06
2022-12-23T01:01:07.531Z,97260.72
2022-12-23T01:03:52.676Z,97269.34
2022-12-23T01:06:19.351Z,97288.25
2022-12-23T01:08:45.848Z,97279.91
2022-12-23T01:11:13.036Z,97279.31
2022-12-23T01:13:40.104Z,97290.16
2022-12-23T01:16:15.051Z,97282.13
2022-12-23T01:18:43.569Z,97293.19
2022-12-23T01:21:10.967Z,97291.78
2022-12-23T01:23:37.812Z,97296.59
2022-12-23T01:26:06.397Z,97293.88
2022-12-23T01:28:33.885Z,97300.06
2022-12-23T01:31:01.610Z,97296.88
2022-12-23T01:33:28.670Z,97298.16
2022-12-23T01:36:03.228Z,97304.03
2022-12-23T01:38:30.535Z,97313.94
2022-12-23T01:40:57.457Z,97308.34
2022-12-23T01:43:24.317Z,97308.19
2022-12-23T01:45:50.943Z,97323.06
2022-12-23T01:48:21.940Z,97327.31
2022-12-23T01:50:52.072Z,97329.47
2022-12-23T01:53:23.428Z,97319.22
2022-12-23T01:56:06.369Z,97317.22
2022-12-23T01:58:42.029Z,97315.34
2022-12-23T02:01:28.298Z,97321.63
2022-12-23T02:03:58.246Z,97330.09
2022-12-23T02:06:49.709Z,97325.94
2022-12-23T02:09:20.838Z,97337.34
2022-12-23T02:12:02.359Z,97343.38
2022-12-23T02:14:58.675Z,97344.22
2022-12-23T02:17:31.081Z,97355.63
2022-12-23T02:20:20.375Z,97355.28
2022-12-23T02:23:14.072Z,97362.63
2022-12-23T02:25:43.043Z,97358.88
2022-12-23T02:28:40.829Z,97369.13
2022-12-23T02:31:20.108Z,97371.72
2022-12-23T02:33:58.715Z,97382.78
2022-12-23T02:36:39.269Z,97375.75
2022-12-23T02:39:10.019Z,97380.34
2022-12-23T02:41:57.207Z,97389.03
2022-12-23T02:44:28.265Z,97394.53
2022-12-23T02:47:01.727Z,97388.81
2022-12-23T02:49:37.436Z,97388.94
2022-12-23T02:52:07.994Z,97399.44
2022-12-23T02:54:40.345Z,97400.69
2022-12-23T02:57:08.025Z,97409.75
2022-12-23T02:59:39.476Z,97410.66
2022-12-23T03:02:06.136Z,97418.88
2022-12-23T03:04:32.854Z,97419.59
2022-12-23T03:07:06.953Z,97417.38
2022-12-23T03:09:34.054Z,97421.56
2022-12-23T03:12:31.169Z,97426.91
2022-12-23T03:15:13.929Z,97417.78
2022-12-23T03:18:16.855Z,97426.47
2022-12-23T03:21:05.133Z,97425.88
2022-12-23T03:23:55.481Z,97434.97
2022-12-23T03:26:29.118Z,97442.97
2022-12-23T03:29:11.370Z,97442.66
2022-12-23T03:31:39.006Z,97441.91
2022-12-23T03:34:09.343Z,97440.44
2022-12-23T03:36:38.707Z,97446.00
2022-12-23T03:39:09.720Z,97446.22
2022-12-23T03:41:41.275Z,97443.06
2022-12-23T03:44:14.855Z,97451.44
2022-12-23T03:46:44.280Z,97458.94
2022-12-23T03:49:21.611Z,97457.34
2022-12-23T03:52:03.083Z,97468.34
2022-12-23T03:54:35.757Z,97458.13
2022-12-23T03:57:05.115Z,97461.78
2022-12-23T03:59:34.787Z,97469.59
2022-12-23T04:02:08.227Z,97468.03
2022-12-23T04:04:46.985Z,97475.09
2022-12-23T04:07:18.233Z,97465.72
2022-12-23T04:09:45.059Z,97477.47
2022-12-23T04:12:11.821Z,97472.91
2022-12-23T04:14:47.606Z,97468.53
2022-12-23T04:17:14.496Z,97471.91
2022-12-23T04:19:42.369Z,97470.31
2022-12-23T04:22:08.936Z,97475.28
2022-12-23T04:24:35.425Z,97482.13
2022-12-23T04:27:01.914Z,97474.53
2022-12-23T04:29:28.417Z,97482.59
2022-12-23T04:31:54.963Z,97490.47
2022-12-23T04:34:21.652Z,97502.47
2022-12-23T04:36:48.197Z,97493.81
2022-12-23T04:39:14.774Z,97482.13
2022-12-23T04:41:41.352Z,97486.22
2022-12-23T04:44:07.931Z,97477.31
2022-12-23T04:46:34.536Z,97488.88
2022-12-23T04:49:01.114Z,97498.91
2022-12-23T04:51:27.633Z,97502.03
2022-12-23T04:53:54.200Z,97510.25
2022-12-23T04:56:20.756Z,97506.28
2022-12-23T04:58:47.257Z,97510.25
2022-12-23T05:01:13.865Z,97522.66
2022-12-23T05:03:40.435Z,97512.50
2022-12-23T05:06:07.631Z,97527.94
2022-12-23T05:08:34.306Z,97526.94
2022-12-23T05:11:00.945Z,97528.03
2022-12-23T05:13:27.491Z,97531.59
2022-12-23T05:15:54.426Z,97540.75
2022-12-23T05:18:21.980Z,97521.19
2022-12-23T05:20:48.871Z,97527.66
2022-12-23T05:23:15.377Z,97532.88
2022-12-23T05:25:41.891Z,97537.88
2022-12-23T05:28:09.497Z,97530.63
2022-12-23T05:30:36.676Z,97533.88
2022-12-23T05:33:03.255Z,97532.28
2022-12-23T05:35:29.883Z,97534.50
2022-12-23T05:37:57.709Z,97536.13
2022-12-23T05:40:28.536Z,97541.78
2022-12-23T05:42:56.321Z,97535.50
2022-12-23T05:45:23.020Z,97530.72
2022-12-23T05:47:49.529Z,97537.34
2022-12-23T05:50:16.031Z,97546.44
2022-12-23T05:52:42.515Z,97552.47
2022-12-23T05:55:09.162Z,97552.06
2022-12-23T05:57:35.995Z,97555.66
2022-12-23T06:00:03.547Z,97568.13
2022-12-23T06:02:39.246Z,97563.91
2022-12-23T06:05:09.453Z,97546.78
2022-12-23T06:07:36.101Z,97554.41
2022-12-23T06:10:03.027Z,97561.56
2022-12-23T06:12:29.746Z,97559.78
2022-12-23T06:14:56.521Z,97558.81
2022-12-23T06:17:23.233Z,97563.81
2022-12-23T06:19:50.164Z,97562.75
2022-12-23T06:22:17.865Z,97557.59
2022-12-23T06:24:44.920Z,97553.38
2022-12-23T06:27:11.451Z,97558.09
2022-12-23T06:29:38.033Z,97563.88
2022-12-23T06:32:07.280Z,97569.38
2022-12-23T06:34:34.025Z,97576.41
2022-12-23T06:37:00.741Z,97570.84
2022-12-23T06:39:27.673Z,97568.66
2022-12-23T06:41:54.213Z,97571.19
2022-12-23T06:44:20.833Z,97573.91
2022-12-23T06:46:47.430Z,97568.19
2022-12-23T06:49:14.220Z,97573.56
2022-12-23T06:51:41.043Z,97577.16
2022-12-23T06:54:10.156Z,97567.47
2022-12-23T06:56:36.754Z,97579.94
2022-12-23T06:59:03.476Z,97576.22
2022-12-23T07:01:30.172Z,97579.81
2022-12-23T07:03:56.735Z,97583.28
2022-12-23T07:06:23.282Z,97597.59
2022-12-23T07:08:50.772Z,97593.34
2022-12-23T07:11:17.415Z,97598.97
2022-12-23T07:13:43.944Z,97602.06
2022-12-23T07:16:10.598Z,97598.22
2022-12-23T07:18:37.224Z,97605.34
2022-12-23T07:21:04.426Z,97602.78
2022-12-23T07:23:33.538Z,97601.50
2022-12-23T07:26:00.152Z,97593.44
2022-12-23T07:28:27.023Z,97593.06
2022-12-23T07:30:54.071Z,97598.03
2022-12-23T07:33:20.735Z,97591.19
2022-12-23T07:35:47.359Z,97584.97
2022-12-23T07:38:15.556Z,97594.25
2022-12-23T07:40:42.278Z,97605.44
2022-12-23T07:43:12.539Z,97597.53
2022-12-23T07:45:43.494Z,97590.66
2022-12-23T07:48:13.764Z,97595.94
2022-12-23T07:50:43.271Z,97586.66
2022-12-23T07:53:09.903Z,97594.09
2022-12-23T07:55:42.611Z,97588.53
2022-12-23T07:58:09.395Z,97586.81
2022-12-23T08:00:38.551Z,97591.47
2022-12-23T08:03:05.447Z,97595.91
2022-12-23T08:05:32.419Z,97605.25
2022-12-23T08:07:59.316Z,97606.31
2022-12-23T08:10:25.941Z,97607.81
2022-12-23T08:12:52.535Z,97617.31
2022-12-23T08:15:19.580Z,97620.78
2022-12-23T08:17:46.343Z,97620.97
2022-12-23T08:20:13.047Z,97623.78
2022-12-23T08:22:39.750Z,97628.13
2022-12-23T08:25:06.854Z,97628.56
2022-12-23T08:27:34.845Z,97629.97
2022-12-23T08:30:04.704Z,97633.28
2022-12-23T08:32:31.244Z,97625.84
2022-12-23T08:34:57.881Z,97631.91
2022-12-23T08:37:24.825Z,97624.16
2022-12-23T08:39:51.340Z,97620.63
2022-12-23T08:42:17.832Z,97623.28
2022-12-23T08:44:44.484Z,97615.13
2022-12-23T08:47:11.249Z,97613.13
2022-12-23T08:49:37.794Z,97599.91
2022-12-23T08:52:04.763Z,97597.47
2022-12-23T08:54:33.574Z,97596.41
2022-12-23T08:57:00.127Z,97606.50
2022-12-23T08:59:26.944Z,97609.81
2022-12-23T09:01:53.751Z,97609.25
2022-12-23T09:04:20.416Z,97615.50
2022-12-23T09:06:46.963Z,97612.19
2022-12-23T09:09:15.709Z,97618.50
2022-12-23T09:11:42.539Z,97623.63
2022-12-23T09:14:10.351Z,97622.81
2022-12-23T09:16:36.982Z,97619.22
2022-12-23T09:19:04.387Z,97624.75
2022-12-23T09:21:30.894Z,97623.63
2022-12-23T09:23:57.436Z,97625.47
2022-12-23T09:26:29.517Z,97621.09
2022-12-23T09:28:56.834Z,97624.41
2022-12-23T09:31:24.066Z,97621.75
2022-12-23T09:33:52.275Z,97623.31
2022-12-23T09:36:19.148Z,97614.56
2022-12-23T09:38:45.747Z,97614.56
2022-12-23T09:41:15.207Z,97603.41
2022-12-23T09:44:12.797Z,97602.56
2022-12-23T09:46:45.705Z,97593.47
2022-12-23T09:49:14.301Z,97599.78
2022-12-23T09:51:40.869Z,97581.00
2022-12-23T09:54:16.673Z,97582.59
2022-12-23T09:56:56.585Z,97585.34
2022-12-23T09:59:41.621Z,97592.13
2022-12-23T10:02:26.869Z,97588.00
2022-12-23T10:05:02.906Z,97589.97
2022-12-23T10:07:56.793Z,97574.34
2022-12-23T10:10:35.680Z,97577.25
2022-12-23T10:13:06.071Z,97568.50
2022-12-23T10:15:42.556Z,97570.56
2022-12-23T10:18:17.269Z,97571.00
2022-12-23T10:21:06.506Z,97566.06
2022-12-23T10:23:44.497Z,97559.66
2022-12-23T10:26:25.854Z,97561.84
2022-12-23T10:29:26.073Z,97570.75
2022-12-23T10:32:17.787Z,97562.38
2022-12-23T10:34:51.594Z,97559.72
2022-12-23T10:37:31.398Z,97551.72
2022-12-23T10:40:04.024Z,97557.19
2022-12-23T10:42:42.858Z,97555.25
2022-12-23T10:45:15.513Z,97550.31
2022-12-23T10:48:06.033Z,97542.78
2022-12-23T10:50:57.599Z,97534.66
2022-12-23T10:53:43.139Z,97537.56
2022-12-23T10:56:10.107Z,97527.25
2022-12-23T10:58:45.869Z,97519.00
2022-12-23T11:01:18.885Z,97514.88
2022-12-23T11:04:10.030Z,97510.72
2022-12-23T11:06:42.702Z,97512.34
2022-12-23T11:09:17.685Z,97515.88
2022-12-23T11:11:55.823Z,97517.63
2022-12-23T11:14:41.486Z,97515.09
2022-12-23T11:17:32.069Z,97508.16
2022-12-23T11:20:11.036Z,97496.06
2022-12-23T11:22:55.839Z,97497.81
2022-12-23T11:25:29.713Z,97496.09
2022-12-23T11:28:04.023Z,97488.22
2022-12-23T11:30:31.662Z,97481.72
2022-12-23T11:32:58.409Z,97481.13
2022-12-23T11:35:34.935Z,97467.00
2022-12-23T11:38:02.294Z,97464.81
2022-12-23T11:40:32.676Z,97456.09
2022-12-23T11:43:01.736Z,97456.56
2022-12-23T11:45:30.947Z,97450.69
2022-12-23T11:47:57.632Z,97448.09
2022-12-23T11:50:38.779Z,97444.81
2022-12-23T11:53:15.083Z,97443.88
2022-12-23T11:55:48.587Z,97439.66
2022-12-23T11:58:18.758Z,97443.75
2022-12-23T12:00:55.565Z,97434.06
2022-12-23T12:03:26.915Z,97430.41
2022-12-23T12:06:00.293Z,97421.94
2022-12-23T12:08:33.363Z,97410.16
2022-12-23T12:11:05.415Z,97418.31
2022-12-23T12:13:41.465Z,97414.41
2022-12-23T12:16:30.138Z,97406.41
2022-12-23T12:19:30.450Z,97402.28
2022-12-23T12:22:02.530Z,97400.69
2022-12-23T12:24:35.607Z,97386.75
2022-12-23T12:27:05.742Z,97377.50
2022-12-23T12:29:54.151Z,97371.22
2022-12-23T12:33:08.964Z,97366.00
2022-12-23T12:35:43.785Z,97369.72
2022-12-23T12:38:18.749Z,97362.81
2022-12-23T12:40:49.683Z,97369.00
2022-12-23T12:43:40.443Z,97364.91
2022-12-23T12:46:29.229Z,97363.97
2022-12-23T12:49:20.686Z,97365.16
2022-12-23T12:51:54.062Z,97359.31
2022-12-23T12:55:04.263Z,97347.09
2022-12-23T12:57:35.801Z,97349.13
2022-12-23T13:00:06.422Z,97333.59
2022-12-23T13:02:52.541Z,97332.91
2022-12-23T13:05:32.928Z,97339.66
2022-12-23T13:08:19.552Z,97326.53
2022-12-23T13:10:53.089Z,97324.44
2022-12-23T13:13:28.033Z,97325.06
2022-12-23T13:16:19.135Z,97328.50
2022-12-23T13:18:51.716Z,97319.28
2022-12-23T13:21:24.399Z,97310.34
2022-12-23T13:24:03.431Z,97310.59
2022-12-23T13:26:49.852Z,97301.03
2022-12-23T13:29:22.509Z,97301.88
2022-12-23T13:31:55.822Z,97295.31
2022-12-23T13:34:34.599Z,97293.34
2022-12-23T13:37:18.623Z,97301.50
2022-12-23T13:40:04.141Z,97305.13
2022-12-23T13:42:34.785Z,97303.78
2022-12-23T13:45:02.159Z,97311.16
2022-12-23T13:47:41.464Z,97307.91
2022-12-23T13:50:23.331Z,97306.06
2022-12-23T13:53:20.431Z,97290.47
2022-12-23T13:56:11.019Z,97295.41
2022-12-23T13:58:39.073Z,97280.38
2022-12-23T14:01:08.851Z,97276.88
2022-12-23T14:03:36.892Z,97275.94
2022-12-23T14:06:22.337Z,97281.63
2022-12-23T14:08:49.893Z,97280.28
2022-12-23T14:11:32.617Z,97273.47
2022-12-23T14:14:04.474Z,97273.75
2022-12-23T14:16:55.417Z,97274.22
2022-12-23T14:19:21.901Z,97276.41
2022-12-23T14:21:51.157Z,97269.13
2022-12-23T14:24:39.172Z,97262.09
2022-12-23T14:27:08.369Z,97270.59
2022-12-23T14:30:04.874Z,97271.78
2022-12-23T14:32:58.603Z,97264.28
2022-12-23T14:35:35.418Z,97267.19
2022-12-23T14:38:15.441Z,97265.13
2022-12-23T14:40:42.037Z,97266.81
2022-12-23T14:43:37.985Z,97265.13
2022-12-23T14:46:06.390Z,97266.06
2022-12-23T14:48:35.637Z,97263.06
2022-12-23T14:51:20.329Z,97267.28
2022-12-23T14:53:53.640Z,97265.31
2022-12-23T14:56:23.437Z,97262.75
2022-12-23T14:59:04.912Z,97269.00
2022-12-23T15:02:01.861Z,97263.78
2022-12-23T15:04:44.211Z,97273.34
2022-12-23T15:07:19.889Z,97274.38
2022-12-23T15:09:48.113Z,97274.94
2022-12-23T15:12:30.213Z,97276.63
2022-12-23T15:15:00.346Z,97275.78
2022-12-23T15:17:30.458Z,97283.91
2022-12-23T15:20:15.891Z,97276.81
2022-12-23T15:22:44.620Z,97275.41
2022-12-23T15:25:24.853Z,97278.16
2022-12-23T15:28:00.954Z,97298.81
2022-12-23T15:30:32.286Z,97307.28
2022-12-23T15:33:01.028Z,97306.00
2022-12-23T15:35:31.670Z,97306.19
2022-12-23T15:37:59.967Z,97308.13
2022-12-23T15:40:33.388Z,97307.22
2022-12-23T15:43:00.554Z,97316.38
2022-12-23T15:45:34.918Z,97319.31
2022-12-23T15:48:02.826Z,97312.75
2022-12-23T15:50:30.396Z,97307.41
2022-12-23T15:53:02.385Z,97304.72
2022-12-23T15:55:31.583Z,97312.09
2022-12-23T15:57:58.987Z,97313.22
2022-12-23T16:00:40.432Z,97308.03
2022-12-23T16:03:22.836Z,97306.31
2022-12-23T16:05:49.569Z,97311.81
2022-12-23T16:08:16.256Z,97308.09
2022-12-23T16:10:56.537Z,97301.69
2022-12-23T16:13:32.185Z,97299.25
2022-12-23T16:16:37.908Z,97304.94
2022-12-23T16:19:05.387Z,97297.19
2022-12-23T16:21:36.577Z,97307.63
2022-12-23T16:24:08.415Z,97302.72
2022-12-23T16:26:41.795Z,97302.97
2022-12-23T16:29:09.203Z,97303.94
2022-12-23T16:31:37.232Z,97302.34
2022-12-23T16:34:07.208Z,97303.50
2022-12-23T16:36:36.295Z,97305.63
2022-12-23T16:39:06.632Z,97309.31
2022-12-23T16:41:34.262Z,97315.00
2022-12-23T16:44:01.037Z,97318.31
2022-12-23T16:46:27.902Z,97312.69
2022-12-23T16:48:58.444Z,97317.03
2022-12-23T16:51:25.843Z,97319.00
2022-12-23T16:53:55.331Z,97319.81
2022-12-23T16:56:24.480Z,97318.03
2022-12-23T16:58:50.998Z,97324.34
2022-12-23T17:01:29.454Z,97324.34
2022-12-23T17:03:56.157Z,97320.72
2022-12-23T17:06:23.276Z,97318.50
2022-12-23T17:08:50.294Z,97319.81
2022-12-23T17:11:37.989Z,97318.72
2022-12-23T17:14:10.367Z,97308.31
2022-12-23T17:16:40.278Z,97312.16
2022-12-23T17:19:07.333Z,97319.19
2022-12-23T17:21:36.724Z,97325.75
2022-12-23T17:24:39.316Z,97314.47
2022-12-23T17:27:17.586Z,97317.78
2022-12-23T17:29:44.155Z,97320.91
2022-12-23T17:32:12.873Z,97324.94
2022-12-23T17:34:40.256Z,97313.31
2022-12-23T17:37:19.408Z,97321.47
2022-12-23T17:39:49.260Z,97316.09
2022-12-23T17:42:25.531Z,97331.00
2022-12-23T17:44:53.004Z,97330.88
2022-12-23T17:47:22.149Z,97325.28
2022-12-23T17:49:49.259Z,97335.28
2022-12-23T17:52:21.048Z,97347.78
2022-12-23T17:54:49.173Z,97344.13
2022-12-23T17:57:21.709Z,97353.72
2022-12-23T17:59:49.322Z,97361.41
2022-12-23T18:02:32.650Z,97376.31
2022-12-23T18:04:59.599Z,97345.03
2022-12-23T18:07:27.484Z,97322.72
2022-12-23T18:09:54.453Z,97325.59
2022-12-23T18:12:40.681Z,97352.16
2022-12-23T18:15:18.360Z,97378.84
2022-12-23T18:17:44.969Z,97380.31
2022-12-23T18:20:19.834Z,97384.97
2022-12-23T18:22:47.648Z,97394.88
2022-12-23T18:25:16.478Z,97374.78
2022-12-23T18:27:43.120Z,97383.63
2022-12-23T18:30:10.262Z,97379.72
2022-12-23T18:32:36.900Z,97377.06
2022-12-23T18:35:03.554Z,97379.38
2022-12-23T18:37:30.068Z,97376.94
2022-12-23T18:39:56.684Z,97380.44
2022-12-23T18:42:23.235Z,97384.03
2022-12-23T18:44:49.763Z,97381.00
2022-12-23T18:47:16.672Z,97374.34
2022-12-23T18:49:43.266Z,97381.44
2022-12-23T18:52:12.564Z,97399.63
2022-12-23T18:54:39.922Z,97401.59
2022-12-23T18:57:07.352Z,97401.81
2022-12-23T18:59:37.568Z,97404.41
2022-12-23T19:02:04.646Z,97418.88
2022-12-23T19:04:31.295Z,97414.22
2022-12-23T19:06:57.820Z,97419.72
2022-12-23T19:09:24.979Z,97425.38
2022-12-23T19:11:52.924Z,97418.16
2022-12-23T19:14:19.553Z,97428.94
2022-12-23T19:16:51.256Z,97423.47
2022-12-23T19:19:18.796Z,97437.41
2022-12-23T19:21:45.317Z,97445.91
2022-12-23T19:24:11.827Z,97449.53
2022-12-23T19:26:38.364Z,97455.41
2022-12-23T19:29:04.872Z,97460.13
2022-12-23T19:31:33.863Z,97450.88
2022-12-23T19:34:00.731Z,97470.34
2022-12-23T19:36:27.710Z,97458.91
2022-12-23T19:38:55.963Z,97477.63
2022-12-23T19:41:22.454Z,97488.53
2022-12-23T19:43:49.207Z,97489.38
2022-12-23T19:46:16.902Z,97492.53
2022-12-23T19:48:43.622Z,97480.25
2022-12-23T19:51:12.418Z,97481.00
2022-12-23T19:53:42.663Z,97483.06
2022-12-23T19:56:14.945Z,97483.75
2022-12-23T19:58:43.054Z,97495.28
2022-12-23T20:01:18.615Z,97477.25
2022-12-23T20:03:46.447Z,97485.06
2022-12-23T20:06:18.830Z,97482.09
2022-12-23T20:08:45.518Z,97486.06
2022-12-23T20:11:14.125Z,97488.53
2022-12-23T20:13:40.734Z,97490.94
2022-12-23T20:16:08.004Z,97501.19
2022-12-23T20:18:34.577Z,97511.94
2022-12-23T20:21:01.209Z,97514.31
2022-12-23T20:23:28.591Z,97517.16
2022-12-23T20:25:55.370Z,97513.38
2022-12-23T20:28:21.892Z,97521.16
2022-12-23T20:30:48.818Z,97514.59
2022-12-23T20:33:15.652Z,97508.97
2022-12-23T20:35:42.314Z,97524.41
2022-12-23T20:38:08.805Z,97540.00
2022-12-23T20:40:35.284Z,97559.69
2022-12-23T20:43:01.874Z,97569.00
2022-12-23T20:45:28.918Z,97561.88
2022-12-23T20:47:55.506Z,97573.22
2022-12-23T20:50:22.035Z,97588.00
2022-12-23T20:52:48.699Z,97591.19
2022-12-23T20:55:15.283Z,97598.13
2022-12-23T20:57:44.425Z,97605.63
2022-12-23T21:00:12.390Z,97596.09
2022-12-23T21:02:38.989Z,97604.72
2022-12-23T21:05:05.644Z,97608.00
2022-12-23T21:07:32.354Z,97606.66
2022-12-23T21:09:59.081Z,97616.34
2022-12-23T21:12:25.760Z,97621.75
2022-12-23T21:14:52.251Z,97635.22
2022-12-23T21:17:18.855Z,97631.88
2022-12-23T21:19:45.480Z,97625.81
2022-12-23T21:22:12.021Z,97624.88
2022-12-23T21:24:39.086Z,97624.06
2022-12-23T21:27:05.656Z,97637.16
2022-12-23T21:29:32.203Z,97640.78
2022-12-23T21:32:00.436Z,97633.47
2022-12-23T21:34:27.179Z,97636.13
2022-12-23T21:36:53.876Z,97621.63
2022-12-23T21:39:20.535Z,97620.44
2022-12-23T21:41:49.148Z,97618.31
2022-12-23T21:44:15.710Z,97633.09
2022-12-23T21:46:42.265Z,97638.28
2022-12-23T21:49:09.333Z,97649.91
2022-12-23T21:51:40.325Z,97649.88
2022-12-23T21:54:08.238Z,97664.16
2022-12-23T21:56:35.236Z,97681.00
2022-12-23T21:59:04.522Z,97671.47
2022-12-23T22:01:31.804Z,97683.03
2022-12-23T22:03:58.525Z,97693.44
2022-12-23T22:06:33.979Z,97684.22
2022-12-23T22:09:00.487Z,97691.38
2022-12-23T22:11:29.823Z,97706.56
2022-12-23T22:13:58.156Z,97692.94
2022-12-23T22:16:26.724Z,97708.53
2022-12-23T22:18:54.067Z,97694.50
2022-12-23T22:21:22.429Z,97694.94
2022-12-23T22:23:50.232Z,97684.19
2022-12-23T22:26:24.685Z,97693.31
2022-12-23T22:28:52.862Z,97702.97
2022-12-23T22:31:37.457Z,97698.34
2022-12-23T22:34:05.714Z,97688.50
2022-12-23T22:36:32.255Z,97690.88
2022-12-23T22:38:59.997Z,97689.38
2022-12-23T22:41:28.071Z,97687.28
2022-12-23T22:43:55.133Z,97703.41
2022-12-23T22:46:21.954Z,97701.16
2022-12-23T22:48:49.209Z,97713.88
2022-12-23T22:51:23.971Z,97717.63
2022-12-23T22:53:50.898Z,97718.38
2022-12-23T22:56:18.796Z,97720.09
2022-12-23T22:58:45.255Z,97724.41
2022-12-23T23:01:32.880Z,97713.88
2022-12-23T23:04:01.539Z,97723.75
2022-12-23T23:06:37.477Z,97709.63
2022-12-23T23:09:05.723Z,97720.09
2022-12-23T23:11:32.335Z,97718.63
2022-12-23T23:13:58.966Z,97716.75
2022-12-23T23:16:25.801Z,97713.97
2022-12-23T23:18:52.989Z,97714.91
2022-12-23T23:21:19.740Z,97726.19
2022-12-23T23:23:46.523Z,97715.03
2022-12-23T23:26:13.590Z,97712.97
2022-12-23T23:28:40.505Z,97722.22
2022-12-23T23:33:54.172Z,97722.03
2022-12-23T23:36:20.719Z,97723.94
2022-12-23T23:38:47.267Z,97725.56
2022-12-23T23:41:17.441Z,97726.53
2022-12-23T23:43:48.845Z,97739.63
2022-12-23T23:46:15.422Z,97748.44
2022-12-23T23:48:41.976Z,97735.97
2022-12-23T23:51:08.513Z,97749.72
2022-12-23T23:53:35.290Z,97751.06
2022-12-23T23:56:06.754Z,97754.69
2022-12-23T23:58:34.531Z,97748.69
